sensor_id;sensor_type;location;lat;lon;timestamp;P1;durP1;ratioP1;P2;durP2;ratioP2
54849;SDS011;47660;51.334;12.396;2023-06-04T00:02:07;2.83;;;1.67;;
54849;SDS011;47660;51.334;12.396;2023-06-04T00:04:35;2.13;;;1.30;;
54849;SDS011;47660;51.334;12.396;2023-06-04T00:07:00;4.05;;;1.92;;
54849;SDS011;47660;51.334;12.396;2023-06-04T00:09:28;2.38;;;1.40;;
54849;SDS011;47660;51.334;12.396;2023-06-04T00:11:54;3.70;;;2.00;;
54849;SDS011;47660;51.334;12.396;2023-06-04T00:14:20;3.25;;;1.80;;
54849;SDS011;47660;51.334;12.396;2023-06-04T00:16:48;2.70;;;1.50;;
54849;SDS011;47660;51.334;12.396;2023-06-04T00:19:13;3.53;;;1.52;;
54849;SDS011;47660;51.334;12.396;2023-06-04T00:21:38;2.83;;;1.33;;
54849;SDS011;47660;51.334;12.396;2023-06-04T00:24:05;3.63;;;1.63;;
54849;SDS011;47660;51.334;12.396;2023-06-04T00:26:33;2.40;;;1.30;;
54849;SDS011;47660;51.334;12.396;2023-06-04T00:29:01;6.25;;;1.58;;
54849;SDS011;47660;51.334;12.396;2023-06-04T00:31:29;2.40;;;1.58;;
54849;SDS011;47660;51.334;12.396;2023-06-04T00:34:00;2.63;;;1.48;;
54849;SDS011;47660;51.334;12.396;2023-06-04T00:36:26;3.28;;;1.50;;
54849;SDS011;47660;51.334;12.396;2023-06-04T00:38:52;2.33;;;1.23;;
54849;SDS011;47660;51.334;12.396;2023-06-04T00:41:20;2.38;;;1.38;;
54849;SDS011;47660;51.334;12.396;2023-06-04T00:43:45;3.25;;;1.55;;
54849;SDS011;47660;51.334;12.396;2023-06-04T00:46:20;3.83;;;1.50;;
54849;SDS011;47660;51.334;12.396;2023-06-04T00:49:03;2.75;;;1.55;;
54849;SDS011;47660;51.334;12.396;2023-06-04T00:51:37;6.22;;;1.25;;
54849;SDS011;47660;51.334;12.396;2023-06-04T00:54:03;2.20;;;1.38;;
54849;SDS011;47660;51.334;12.396;2023-06-04T00:56:34;2.15;;;1.25;;
54849;SDS011;47660;51.334;12.396;2023-06-04T00:59:02;3.13;;;1.58;;
54849;SDS011;47660;51.334;12.396;2023-06-04T01:01:37;5.13;;;1.55;;
54849;SDS011;47660;51.334;12.396;2023-06-04T01:04:12;2.05;;;1.38;;
54849;SDS011;47660;51.334;12.396;2023-06-04T01:06:47;4.43;;;1.65;;
54849;SDS011;47660;51.334;12.396;2023-06-04T01:09:16;2.35;;;1.50;;
54849;SDS011;47660;51.334;12.396;2023-06-04T01:11:41;1.80;;;1.35;;
54849;SDS011;47660;51.334;12.396;2023-06-04T01:14:08;3.78;;;1.80;;
54849;SDS011;47660;51.334;12.396;2023-06-04T01:16:45;3.03;;;1.30;;
54849;SDS011;47660;51.334;12.396;2023-06-04T01:25:03;5.60;;;1.75;;
54849;SDS011;47660;51.334;12.396;2023-06-04T01:27:34;4.68;;;1.63;;
54849;SDS011;47660;51.334;12.396;2023-06-04T01:30:00;3.28;;;1.75;;
54849;SDS011;47660;51.334;12.396;2023-06-04T01:32:26;3.08;;;1.55;;
54849;SDS011;47660;51.334;12.396;2023-06-04T01:34:54;2.33;;;1.42;;
54849;SDS011;47660;51.334;12.396;2023-06-04T01:37:20;2.45;;;1.80;;
54849;SDS011;47660;51.334;12.396;2023-06-04T01:39:47;4.15;;;1.55;;
54849;SDS011;47660;51.334;12.396;2023-06-04T01:42:13;2.33;;;1.20;;
54849;SDS011;47660;51.334;12.396;2023-06-04T01:44:40;2.67;;;1.55;;
54849;SDS011;47660;51.334;12.396;2023-06-04T01:47:06;5.85;;;1.63;;
54849;SDS011;47660;51.334;12.396;2023-06-04T01:49:34;2.22;;;1.48;;
54849;SDS011;47660;51.334;12.396;2023-06-04T01:52:00;3.88;;;1.33;;
54849;SDS011;47660;51.334;12.396;2023-06-04T01:54:25;2.90;;;1.23;;
54849;SDS011;47660;51.334;12.396;2023-06-04T01:56:51;2.90;;;1.50;;
54849;SDS011;47660;51.334;12.396;2023-06-04T01:59:18;2.28;;;1.10;;
54849;SDS011;47660;51.334;12.396;2023-06-04T02:01:46;3.15;;;1.60;;
54849;SDS011;47660;51.334;12.396;2023-06-04T02:04:11;6.85;;;1.33;;
54849;SDS011;47660;51.334;12.396;2023-06-04T02:06:39;3.55;;;1.52;;
54849;SDS011;47660;51.334;12.396;2023-06-04T02:09:10;2.80;;;1.40;;
54849;SDS011;47660;51.334;12.396;2023-06-04T02:11:35;1.52;;;1.02;;
54849;SDS011;47660;51.334;12.396;2023-06-04T02:14:00;2.17;;;1.38;;
54849;SDS011;47660;51.334;12.396;2023-06-04T02:16:26;2.13;;;1.67;;
54849;SDS011;47660;51.334;12.396;2023-06-04T02:18:51;2.30;;;1.05;;
54849;SDS011;47660;51.334;12.396;2023-06-04T02:21:19;1.27;;;1.10;;
54849;SDS011;47660;51.334;12.396;2023-06-04T02:23:55;2.42;;;1.00;;
54849;SDS011;47660;51.334;12.396;2023-06-04T02:26:20;3.03;;;1.13;;
54849;SDS011;47660;51.334;12.396;2023-06-04T02:28:47;2.42;;;1.10;;
54849;SDS011;47660;51.334;12.396;2023-06-04T02:31:15;7.10;;;1.42;;
54849;SDS011;47660;51.334;12.396;2023-06-04T02:33:40;2.45;;;1.30;;
54849;SDS011;47660;51.334;12.396;2023-06-04T02:36:08;2.15;;;1.40;;
54849;SDS011;47660;51.334;12.396;2023-06-04T02:38:36;3.92;;;1.33;;
54849;SDS011;47660;51.334;12.396;2023-06-04T02:41:02;1.48;;;1.05;;
54849;SDS011;47660;51.334;12.396;2023-06-04T02:43:30;3.35;;;1.05;;
54849;SDS011;47660;51.334;12.396;2023-06-04T02:45:55;1.83;;;1.13;;
54849;SDS011;47660;51.334;12.396;2023-06-04T02:48:21;1.83;;;1.30;;
54849;SDS011;47660;51.334;12.396;2023-06-04T02:50:46;1.83;;;1.20;;
54849;SDS011;47660;51.334;12.396;2023-06-04T02:53:11;2.85;;;1.27;;
54849;SDS011;47660;51.334;12.396;2023-06-04T02:55:37;2.20;;;1.00;;
54849;SDS011;47660;51.334;12.396;2023-06-04T02:58:02;2.63;;;1.23;;
54849;SDS011;47660;51.334;12.396;2023-06-04T03:00:30;2.10;;;1.15;;
54849;SDS011;47660;51.334;12.396;2023-06-04T03:02:56;2.22;;;1.30;;
54849;SDS011;47660;51.334;12.396;2023-06-04T03:05:26;2.28;;;1.38;;
54849;SDS011;47660;51.334;12.396;2023-06-04T03:07:52;1.70;;;1.10;;
54849;SDS011;47660;51.334;12.396;2023-06-04T03:10:21;3.42;;;1.35;;
54849;SDS011;47660;51.334;12.396;2023-06-04T03:12:46;1.58;;;1.30;;
54849;SDS011;47660;51.334;12.396;2023-06-04T03:15:12;2.00;;;1.08;;
54849;SDS011;47660;51.334;12.396;2023-06-04T03:17:37;2.13;;;1.35;;
54849;SDS011;47660;51.334;12.396;2023-06-04T03:20:05;1.83;;;1.30;;
54849;SDS011;47660;51.334;12.396;2023-06-04T03:22:32;4.38;;;1.50;;
54849;SDS011;47660;51.334;12.396;2023-06-04T03:24:58;2.28;;;1.33;;
54849;SDS011;47660;51.334;12.396;2023-06-04T03:27:24;2.38;;;1.60;;
54849;SDS011;47660;51.334;12.396;2023-06-04T03:30:22;3.33;;;1.30;;
54849;SDS011;47660;51.334;12.396;2023-06-04T03:32:44;2.30;;;1.35;;
54849;SDS011;47660;51.334;12.396;2023-06-04T03:35:12;1.60;;;1.17;;
54849;SDS011;47660;51.334;12.396;2023-06-04T03:37:38;3.05;;;1.70;;
54849;SDS011;47660;51.334;12.396;2023-06-04T03:40:04;2.03;;;1.40;;
54849;SDS011;47660;51.334;12.396;2023-06-04T03:42:31;2.58;;;1.30;;
54849;SDS011;47660;51.334;12.396;2023-06-04T03:44:56;2.95;;;1.52;;
54849;SDS011;47660;51.334;12.396;2023-06-04T03:47:23;2.05;;;1.50;;
54849;SDS011;47660;51.334;12.396;2023-06-04T03:49:50;2.35;;;1.40;;
54849;SDS011;47660;51.334;12.396;2023-06-04T03:52:18;2.10;;;1.23;;
54849;SDS011;47660;51.334;12.396;2023-06-04T03:54:43;2.13;;;1.30;;
54849;SDS011;47660;51.334;12.396;2023-06-04T03:57:11;3.05;;;1.38;;
54849;SDS011;47660;51.334;12.396;2023-06-04T04:02:38;1.73;;;1.40;;
54849;SDS011;47660;51.334;12.396;2023-06-04T04:05:07;2.38;;;1.73;;
54849;SDS011;47660;51.334;12.396;2023-06-04T04:07:34;1.98;;;1.40;;
54849;SDS011;47660;51.334;12.396;2023-06-04T04:10:00;2.50;;;1.27;;
54849;SDS011;47660;51.334;12.396;2023-06-04T04:12:25;2.50;;;1.40;;
54849;SDS011;47660;51.334;12.396;2023-06-04T04:14:51;2.95;;;1.38;;
54849;SDS011;47660;51.334;12.396;2023-06-04T04:17:16;6.43;;;1.27;;
54849;SDS011;47660;51.334;12.396;2023-06-04T04:19:44;3.25;;;1.63;;
54849;SDS011;47660;51.334;12.396;2023-06-04T04:22:10;2.85;;;1.52;;
54849;SDS011;47660;51.334;12.396;2023-06-04T04:24:36;4.68;;;1.65;;
54849;SDS011;47660;51.334;12.396;2023-06-04T04:27:02;3.28;;;1.52;;
54849;SDS011;47660;51.334;12.396;2023-06-04T04:29:29;2.83;;;1.40;;
54849;SDS011;47660;51.334;12.396;2023-06-04T04:34:54;3.17;;;1.48;;
54849;SDS011;47660;51.334;12.396;2023-06-04T04:37:20;3.30;;;1.45;;
54849;SDS011;47660;51.334;12.396;2023-06-04T04:39:49;2.40;;;1.50;;
54849;SDS011;47660;51.334;12.396;2023-06-04T04:42:23;2.30;;;1.27;;
54849;SDS011;47660;51.334;12.396;2023-06-04T04:44:54;4.00;;;1.40;;
54849;SDS011;47660;51.334;12.396;2023-06-04T04:47:20;3.03;;;1.60;;
54849;SDS011;47660;51.334;12.396;2023-06-04T04:49:45;2.25;;;1.65;;
54849;SDS011;47660;51.334;12.396;2023-06-04T04:52:14;2.53;;;1.48;;
54849;SDS011;47660;51.334;12.396;2023-06-04T04:54:42;1.98;;;1.30;;
54849;SDS011;47660;51.334;12.396;2023-06-04T04:57:07;2.10;;;1.42;;
54849;SDS011;47660;51.334;12.396;2023-06-04T04:59:32;2.75;;;1.58;;
54849;SDS011;47660;51.334;12.396;2023-06-04T05:01:58;4.90;;;1.58;;
54849;SDS011;47660;51.334;12.396;2023-06-04T05:04:23;2.50;;;1.48;;
54849;SDS011;47660;51.334;12.396;2023-06-04T05:06:51;3.20;;;1.73;;
54849;SDS011;47660;51.334;12.396;2023-06-04T05:09:17;1.98;;;1.50;;
54849;SDS011;47660;51.334;12.396;2023-06-04T05:11:43;2.83;;;1.45;;
54849;SDS011;47660;51.334;12.396;2023-06-04T05:14:08;2.28;;;1.40;;
54849;SDS011;47660;51.334;12.396;2023-06-04T05:16:33;6.13;;;1.50;;
54849;SDS011;47660;51.334;12.396;2023-06-04T05:19:03;3.42;;;1.40;;
54849;SDS011;47660;51.334;12.396;2023-06-04T05:21:28;1.60;;;1.33;;
54849;SDS011;47660;51.334;12.396;2023-06-04T05:23:56;3.35;;;1.67;;
54849;SDS011;47660;51.334;12.396;2023-06-04T05:26:21;2.75;;;1.75;;
54849;SDS011;47660;51.334;12.396;2023-06-04T05:28:48;2.92;;;1.48;;
54849;SDS011;47660;51.334;12.396;2023-06-04T05:31:19;2.47;;;1.58;;
54849;SDS011;47660;51.334;12.396;2023-06-04T05:33:44;3.08;;;1.50;;
54849;SDS011;47660;51.334;12.396;2023-06-04T05:36:13;1.80;;;1.40;;
54849;SDS011;47660;51.334;12.396;2023-06-04T05:38:38;4.90;;;1.70;;
54849;SDS011;47660;51.334;12.396;2023-06-04T05:41:04;2.35;;;1.60;;
54849;SDS011;47660;51.334;12.396;2023-06-04T05:43:30;4.03;;;1.60;;
54849;SDS011;47660;51.334;12.396;2023-06-04T05:45:55;2.60;;;1.70;;
54849;SDS011;47660;51.334;12.396;2023-06-04T05:48:23;2.97;;;1.90;;
54849;SDS011;47660;51.334;12.396;2023-06-04T05:50:48;2.03;;;1.70;;
54849;SDS011;47660;51.334;12.396;2023-06-04T05:53:16;2.63;;;1.60;;
54849;SDS011;47660;51.334;12.396;2023-06-04T05:55:41;1.60;;;1.23;;
54849;SDS011;47660;51.334;12.396;2023-06-04T05:58:12;2.10;;;1.67;;
54849;SDS011;47660;51.334;12.396;2023-06-04T06:00:37;2.80;;;1.60;;
54849;SDS011;47660;51.334;12.396;2023-06-04T06:03:03;1.80;;;1.38;;
54849;SDS011;47660;51.334;12.396;2023-06-04T06:05:31;1.23;;;1.10;;
54849;SDS011;47660;51.334;12.396;2023-06-04T06:07:56;2.75;;;1.05;;
54849;SDS011;47660;51.334;12.396;2023-06-04T06:10:22;3.65;;;1.17;;
54849;SDS011;47660;51.334;12.396;2023-06-04T06:12:47;1.13;;;0.93;;
54849;SDS011;47660;51.334;12.396;2023-06-04T06:15:13;4.68;;;1.10;;
54849;SDS011;47660;51.334;12.396;2023-06-04T06:17:38;1.35;;;1.10;;
54849;SDS011;47660;51.334;12.396;2023-06-04T06:20:04;1.60;;;1.33;;
54849;SDS011;47660;51.334;12.396;2023-06-04T06:22:33;2.92;;;1.30;;
54849;SDS011;47660;51.334;12.396;2023-06-04T06:25:00;2.25;;;1.10;;
54849;SDS011;47660;51.334;12.396;2023-06-04T06:27:26;2.90;;;1.17;;
54849;SDS011;47660;51.334;12.396;2023-06-04T06:29:53;4.95;;;1.23;;
54849;SDS011;47660;51.334;12.396;2023-06-04T06:32:19;2.83;;;0.90;;
54849;SDS011;47660;51.334;12.396;2023-06-04T06:34:44;3.33;;;1.17;;
54849;SDS011;47660;51.334;12.396;2023-06-04T06:37:10;2.47;;;0.93;;
54849;SDS011;47660;51.334;12.396;2023-06-04T06:39:35;3.35;;;0.90;;
54849;SDS011;47660;51.334;12.396;2023-06-04T06:42:01;1.25;;;0.82;;
54849;SDS011;47660;51.334;12.396;2023-06-04T06:44:28;2.03;;;1.10;;
54849;SDS011;47660;51.334;12.396;2023-06-04T06:46:54;1.60;;;1.17;;
54849;SDS011;47660;51.334;12.396;2023-06-04T06:49:19;2.35;;;1.10;;
54849;SDS011;47660;51.334;12.396;2023-06-04T06:51:45;2.38;;;1.30;;
54849;SDS011;47660;51.334;12.396;2023-06-04T06:54:15;2.65;;;1.20;;
54849;SDS011;47660;51.334;12.396;2023-06-04T06:56:41;1.20;;;1.10;;
54849;SDS011;47660;51.334;12.396;2023-06-04T06:59:07;3.28;;;1.20;;
54849;SDS011;47660;51.334;12.396;2023-06-04T07:01:34;1.58;;;1.25;;
54849;SDS011;47660;51.334;12.396;2023-06-04T07:04:02;1.38;;;1.23;;
54849;SDS011;47660;51.334;12.396;2023-06-04T07:06:31;3.45;;;1.35;;
54849;SDS011;47660;51.334;12.396;2023-06-04T07:08:57;1.48;;;1.10;;
54849;SDS011;47660;51.334;12.396;2023-06-04T07:11:22;1.63;;;1.20;;
54849;SDS011;47660;51.334;12.396;2023-06-04T07:13:48;2.55;;;1.20;;
54849;SDS011;47660;51.334;12.396;2023-06-04T07:16:16;2.35;;;1.10;;
54849;SDS011;47660;51.334;12.396;2023-06-04T07:18:41;1.00;;;0.88;;
54849;SDS011;47660;51.334;12.396;2023-06-04T07:21:07;1.20;;;1.00;;
54849;SDS011;47660;51.334;12.396;2023-06-04T07:23:35;4.07;;;0.80;;
54849;SDS011;47660;51.334;12.396;2023-06-04T07:26:00;1.50;;;0.75;;
54849;SDS011;47660;51.334;12.396;2023-06-04T07:28:28;1.10;;;0.80;;
54849;SDS011;47660;51.334;12.396;2023-06-04T07:30:56;1.83;;;1.02;;
54849;SDS011;47660;51.334;12.396;2023-06-04T07:33:23;2.28;;;0.90;;
54849;SDS011;47660;51.334;12.396;2023-06-04T07:35:49;1.92;;;0.80;;
54849;SDS011;47660;51.334;12.396;2023-06-04T07:38:19;3.22;;;0.90;;
54849;SDS011;47660;51.334;12.396;2023-06-04T07:40:45;2.75;;;0.85;;
54849;SDS011;47660;51.334;12.396;2023-06-04T07:43:11;2.58;;;0.95;;
54849;SDS011;47660;51.334;12.396;2023-06-04T07:45:38;4.25;;;0.90;;
54849;SDS011;47660;51.334;12.396;2023-06-04T07:48:04;2.80;;;0.80;;
54849;SDS011;47660;51.334;12.396;2023-06-04T07:50:30;2.15;;;0.80;;
54849;SDS011;47660;51.334;12.396;2023-06-04T07:52:57;1.88;;;0.90;;
54849;SDS011;47660;51.334;12.396;2023-06-04T07:55:23;1.52;;;0.60;;
54849;SDS011;47660;51.334;12.396;2023-06-04T07:57:48;1.95;;;0.75;;
54849;SDS011;47660;51.334;12.396;2023-06-04T08:00:16;1.75;;;0.60;;
54849;SDS011;47660;51.334;12.396;2023-06-04T08:02:42;1.67;;;0.60;;
54849;SDS011;47660;51.334;12.396;2023-06-04T08:05:13;1.25;;;0.63;;
54849;SDS011;47660;51.334;12.396;2023-06-04T08:07:41;0.75;;;0.50;;
54849;SDS011;47660;51.334;12.396;2023-06-04T08:10:06;2.95;;;0.70;;
54849;SDS011;47660;51.334;12.396;2023-06-04T08:12:32;0.90;;;0.60;;
54849;SDS011;47660;51.334;12.396;2023-06-04T08:14:58;1.50;;;0.63;;
54849;SDS011;47660;51.334;12.396;2023-06-04T08:17:23;1.30;;;0.60;;
54849;SDS011;47660;51.334;12.396;2023-06-04T08:19:51;1.48;;;0.80;;
54849;SDS011;47660;51.334;12.396;2023-06-04T08:22:17;0.65;;;0.60;;
54849;SDS011;47660;51.334;12.396;2023-06-04T08:24:42;1.83;;;0.60;;
54849;SDS011;47660;51.334;12.396;2023-06-04T08:27:08;1.13;;;0.60;;
54849;SDS011;47660;51.334;12.396;2023-06-04T08:29:36;1.40;;;0.70;;
54849;SDS011;47660;51.334;12.396;2023-06-04T08:32:02;0.85;;;0.70;;
54849;SDS011;47660;51.334;12.396;2023-06-04T08:34:28;1.73;;;0.70;;
54849;SDS011;47660;51.334;12.396;2023-06-04T08:36:54;1.67;;;1.00;;
54849;SDS011;47660;51.334;12.396;2023-06-04T08:39:19;1.10;;;0.77;;
54849;SDS011;47660;51.334;12.396;2023-06-04T08:41:59;0.82;;;0.55;;
54849;SDS011;47660;51.334;12.396;2023-06-04T08:44:27;0.82;;;0.57;;
54849;SDS011;47660;51.334;12.396;2023-06-04T08:46:53;1.15;;;0.63;;
54849;SDS011;47660;51.334;12.396;2023-06-04T08:49:27;1.55;;;0.90;;
54849;SDS011;47660;51.334;12.396;2023-06-04T08:52:00;1.25;;;0.70;;
54849;SDS011;47660;51.334;12.396;2023-06-04T08:54:26;3.65;;;0.80;;
54849;SDS011;47660;51.334;12.396;2023-06-04T08:56:51;1.33;;;0.50;;
54849;SDS011;47660;51.334;12.396;2023-06-04T08:59:17;0.70;;;0.55;;
54849;SDS011;47660;51.334;12.396;2023-06-04T09:01:43;0.50;;;0.50;;
54849;SDS011;47660;51.334;12.396;2023-06-04T09:04:11;0.70;;;0.70;;
54849;SDS011;47660;51.334;12.396;2023-06-04T09:06:37;0.80;;;0.60;;
54849;SDS011;47660;51.334;12.396;2023-06-04T09:09:08;1.35;;;0.80;;
54849;SDS011;47660;51.334;12.396;2023-06-04T09:11:39;2.25;;;0.80;;
54849;SDS011;47660;51.334;12.396;2023-06-04T09:14:15;0.88;;;0.50;;
54849;SDS011;47660;51.334;12.396;2023-06-04T09:16:48;1.45;;;0.57;;
54849;SDS011;47660;51.334;12.396;2023-06-04T09:19:21;1.63;;;0.68;;
54849;SDS011;47660;51.334;12.396;2023-06-04T09:24:19;1.00;;;0.60;;
54849;SDS011;47660;51.334;12.396;2023-06-04T09:26:46;0.63;;;0.40;;
54849;SDS011;47660;51.334;12.396;2023-06-04T09:29:12;1.10;;;0.50;;
54849;SDS011;47660;51.334;12.396;2023-06-04T09:31:40;2.65;;;0.80;;
54849;SDS011;47660;51.334;12.396;2023-06-04T09:34:06;1.45;;;0.57;;
54849;SDS011;47660;51.334;12.396;2023-06-04T09:36:32;0.93;;;0.60;;
54849;SDS011;47660;51.334;12.396;2023-06-04T09:39:00;1.42;;;0.60;;
54849;SDS011;47660;51.334;12.396;2023-06-04T09:41:28;0.95;;;0.60;;
54849;SDS011;47660;51.334;12.396;2023-06-04T09:44:03;1.83;;;0.65;;
54849;SDS011;47660;51.334;12.396;2023-06-04T09:46:30;1.85;;;1.20;;
54849;SDS011;47660;51.334;12.396;2023-06-04T09:49:00;0.93;;;0.60;;
54849;SDS011;47660;51.334;12.396;2023-06-04T09:51:28;1.58;;;0.90;;
54849;SDS011;47660;51.334;12.396;2023-06-04T09:53:57;1.60;;;0.60;;
54849;SDS011;47660;51.334;12.396;2023-06-04T09:56:25;0.88;;;0.60;;
54849;SDS011;47660;51.334;12.396;2023-06-04T09:58:57;2.05;;;0.90;;
54849;SDS011;47660;51.334;12.396;2023-06-04T10:01:25;2.55;;;0.52;;
54849;SDS011;47660;51.334;12.396;2023-06-04T10:03:51;0.70;;;0.50;;
54849;SDS011;47660;51.334;12.396;2023-06-04T10:06:18;0.80;;;0.60;;
54849;SDS011;47660;51.334;12.396;2023-06-04T10:08:46;0.93;;;0.60;;
54849;SDS011;47660;51.334;12.396;2023-06-04T10:11:14;0.80;;;0.47;;
54849;SDS011;47660;51.334;12.396;2023-06-04T10:16:20;0.90;;;0.60;;
54849;SDS011;47660;51.334;12.396;2023-06-04T10:18:48;2.08;;;0.50;;
54849;SDS011;47660;51.334;12.396;2023-06-04T10:21:15;1.00;;;0.55;;
54849;SDS011;47660;51.334;12.396;2023-06-04T10:23:43;0.95;;;0.57;;
54849;SDS011;47660;51.334;12.396;2023-06-04T10:26:12;0.50;;;0.50;;
54849;SDS011;47660;51.334;12.396;2023-06-04T10:28:40;1.42;;;0.75;;
54849;SDS011;47660;51.334;12.396;2023-06-04T10:31:08;1.85;;;0.50;;
54849;SDS011;47660;51.334;12.396;2023-06-04T10:33:34;1.08;;;0.43;;
54849;SDS011;47660;51.334;12.396;2023-06-04T10:36:10;1.88;;;0.80;;
54849;SDS011;47660;51.334;12.396;2023-06-04T10:38:48;2.28;;;1.05;;
54849;SDS011;47660;51.334;12.396;2023-06-04T10:41:16;0.85;;;0.50;;
54849;SDS011;47660;51.334;12.396;2023-06-04T10:43:43;0.85;;;0.55;;
54849;SDS011;47660;51.334;12.396;2023-06-04T10:46:13;2.78;;;1.00;;
54849;SDS011;47660;51.334;12.396;2023-06-04T10:48:46;0.90;;;0.68;;
54849;SDS011;47660;51.334;12.396;2023-06-04T10:51:13;0.73;;;0.40;;
54849;SDS011;47660;51.334;12.396;2023-06-04T10:53:39;0.50;;;0.50;;
54849;SDS011;47660;51.334;12.396;2023-06-04T10:56:05;0.90;;;0.60;;
54849;SDS011;47660;51.334;12.396;2023-06-04T10:58:34;0.82;;;0.50;;
54849;SDS011;47660;51.334;12.396;2023-06-04T11:01:00;1.80;;;0.52;;
54849;SDS011;47660;51.334;12.396;2023-06-04T11:03:35;3.75;;;0.70;;
54849;SDS011;47660;51.334;12.396;2023-06-04T11:06:14;3.55;;;0.77;;
54849;SDS011;47660;51.334;12.396;2023-06-04T11:08:41;2.28;;;0.70;;
54849;SDS011;47660;51.334;12.396;2023-06-04T11:11:13;0.98;;;0.63;;
54849;SDS011;47660;51.334;12.396;2023-06-04T11:13:42;1.15;;;0.60;;
54849;SDS011;47660;51.334;12.396;2023-06-04T11:16:15;1.17;;;0.60;;
54849;SDS011;47660;51.334;12.396;2023-06-04T11:18:42;0.68;;;0.50;;
54849;SDS011;47660;51.334;12.396;2023-06-04T11:21:07;1.05;;;0.70;;
54849;SDS011;47660;51.334;12.396;2023-06-04T11:23:33;0.68;;;0.68;;
54849;SDS011;47660;51.334;12.396;2023-06-04T11:26:01;1.30;;;0.60;;
54849;SDS011;47660;51.334;12.396;2023-06-04T11:28:26;1.00;;;0.60;;
54849;SDS011;47660;51.334;12.396;2023-06-04T11:31:01;0.70;;;0.60;;
54849;SDS011;47660;51.334;12.396;2023-06-04T11:33:45;1.65;;;0.50;;
54849;SDS011;47660;51.334;12.396;2023-06-04T11:36:23;2.30;;;0.70;;
54849;SDS011;47660;51.334;12.396;2023-06-04T11:38:54;0.52;;;0.52;;
54849;SDS011;47660;51.334;12.396;2023-06-04T11:41:21;1.13;;;0.82;;
54849;SDS011;47660;51.334;12.396;2023-06-04T11:43:49;0.82;;;0.52;;
54849;SDS011;47660;51.334;12.396;2023-06-04T11:46:14;1.45;;;0.90;;
54849;SDS011;47660;51.334;12.396;2023-06-04T11:48:40;1.50;;;0.82;;
54849;SDS011;47660;51.334;12.396;2023-06-04T11:51:06;2.33;;;0.68;;
54849;SDS011;47660;51.334;12.396;2023-06-04T11:53:33;1.38;;;0.70;;
54849;SDS011;47660;51.334;12.396;2023-06-04T11:56:01;0.40;;;0.38;;
54849;SDS011;47660;51.334;12.396;2023-06-04T11:58:27;0.60;;;0.50;;
54849;SDS011;47660;51.334;12.396;2023-06-04T12:00:54;0.90;;;0.63;;
54849;SDS011;47660;51.334;12.396;2023-06-04T12:03:35;1.58;;;0.70;;
54849;SDS011;47660;51.334;12.396;2023-06-04T12:08:52;1.73;;;0.80;;
54849;SDS011;47660;51.334;12.396;2023-06-04T12:11:32;2.40;;;0.70;;
54849;SDS011;47660;51.334;12.396;2023-06-04T12:13:58;1.05;;;0.60;;
54849;SDS011;47660;51.334;12.396;2023-06-04T12:16:28;1.38;;;0.77;;
54849;SDS011;47660;51.334;12.396;2023-06-04T12:19:06;1.70;;;0.60;;
54849;SDS011;47660;51.334;12.396;2023-06-04T12:21:33;1.77;;;0.70;;
54849;SDS011;47660;51.334;12.396;2023-06-04T12:24:11;2.33;;;0.73;;
54849;SDS011;47660;51.334;12.396;2023-06-04T12:26:38;1.13;;;0.52;;
54849;SDS011;47660;51.334;12.396;2023-06-04T12:29:12;1.05;;;0.60;;
54849;SDS011;47660;51.334;12.396;2023-06-04T12:31:39;2.00;;;0.63;;
54849;SDS011;47660;51.334;12.396;2023-06-04T12:34:09;1.27;;;0.63;;
54849;SDS011;47660;51.334;12.396;2023-06-04T12:36:36;1.38;;;0.60;;
54849;SDS011;47660;51.334;12.396;2023-06-04T12:39:03;1.50;;;0.63;;
54849;SDS011;47660;51.334;12.396;2023-06-04T12:41:30;0.88;;;0.55;;
54849;SDS011;47660;51.334;12.396;2023-06-04T12:43:56;0.85;;;0.60;;
54849;SDS011;47660;51.334;12.396;2023-06-04T12:46:22;1.42;;;0.60;;
54849;SDS011;47660;51.334;12.396;2023-06-04T12:48:51;3.58;;;0.50;;
54849;SDS011;47660;51.334;12.396;2023-06-04T12:51:20;1.73;;;0.60;;
54849;SDS011;47660;51.334;12.396;2023-06-04T12:53:46;2.45;;;0.60;;
54849;SDS011;47660;51.334;12.396;2023-06-04T12:56:12;0.75;;;0.60;;
54849;SDS011;47660;51.334;12.396;2023-06-04T12:58:41;0.75;;;0.60;;
54849;SDS011;47660;51.334;12.396;2023-06-04T13:01:09;1.02;;;0.60;;
54849;SDS011;47660;51.334;12.396;2023-06-04T13:03:39;2.05;;;0.68;;
54849;SDS011;47660;51.334;12.396;2023-06-04T13:06:05;3.53;;;0.73;;
54849;SDS011;47660;51.334;12.396;2023-06-04T13:08:31;0.88;;;0.65;;
54849;SDS011;47660;51.334;12.396;2023-06-04T13:10:57;1.33;;;1.02;;
54849;SDS011;47660;51.334;12.396;2023-06-04T13:13:25;1.98;;;0.68;;
54849;SDS011;47660;51.334;12.396;2023-06-04T13:15:50;1.05;;;0.90;;
54849;SDS011;47660;51.334;12.396;2023-06-04T13:18:19;1.70;;;0.60;;
54849;SDS011;47660;51.334;12.396;2023-06-04T13:20:44;0.63;;;0.57;;
54849;SDS011;47660;51.334;12.396;2023-06-04T13:23:09;0.63;;;0.60;;
54849;SDS011;47660;51.334;12.396;2023-06-04T13:25:37;0.63;;;0.60;;
54849;SDS011;47660;51.334;12.396;2023-06-04T13:28:02;1.25;;;0.95;;
54849;SDS011;47660;51.334;12.396;2023-06-04T13:30:28;0.70;;;0.70;;
54849;SDS011;47660;51.334;12.396;2023-06-04T13:32:54;0.95;;;0.70;;
54849;SDS011;47660;51.334;12.396;2023-06-04T13:35:20;0.95;;;0.80;;
54849;SDS011;47660;51.334;12.396;2023-06-04T13:37:45;0.90;;;0.85;;
54849;SDS011;47660;51.334;12.396;2023-06-04T13:40:13;4.15;;;0.80;;
54849;SDS011;47660;51.334;12.396;2023-06-04T13:42:41;1.42;;;0.60;;
54849;SDS011;47660;51.334;12.396;2023-06-04T13:45:09;0.90;;;0.70;;
54849;SDS011;47660;51.334;12.396;2023-06-04T13:47:35;1.63;;;0.70;;
54849;SDS011;47660;51.334;12.396;2023-06-04T13:50:00;0.88;;;0.60;;
54849;SDS011;47660;51.334;12.396;2023-06-04T13:52:26;1.10;;;0.60;;
54849;SDS011;47660;51.334;12.396;2023-06-04T13:54:54;0.98;;;0.50;;
54849;SDS011;47660;51.334;12.396;2023-06-04T13:57:20;0.50;;;0.50;;
54849;SDS011;47660;51.334;12.396;2023-06-04T13:59:46;1.00;;;0.90;;
54849;SDS011;47660;51.334;12.396;2023-06-04T14:02:11;0.98;;;0.70;;
54849;SDS011;47660;51.334;12.396;2023-06-04T14:04:37;1.30;;;0.80;;
54849;SDS011;47660;51.334;12.396;2023-06-04T14:07:02;1.15;;;0.60;;
54849;SDS011;47660;51.334;12.396;2023-06-04T14:09:28;0.70;;;0.60;;
54849;SDS011;47660;51.334;12.396;2023-06-04T14:11:55;1.17;;;0.75;;
54849;SDS011;47660;51.334;12.396;2023-06-04T14:14:21;0.90;;;0.70;;
54849;SDS011;47660;51.334;12.396;2023-06-04T14:16:49;0.80;;;0.70;;
54849;SDS011;47660;51.334;12.396;2023-06-04T14:19:15;0.60;;;0.60;;
54849;SDS011;47660;51.334;12.396;2023-06-04T14:21:41;0.57;;;0.57;;
54849;SDS011;47660;51.334;12.396;2023-06-04T14:24:07;1.10;;;0.77;;
54849;SDS011;47660;51.334;12.396;2023-06-04T14:26:34;0.90;;;0.60;;
54849;SDS011;47660;51.334;12.396;2023-06-04T14:29:00;0.50;;;0.50;;
54849;SDS011;47660;51.334;12.396;2023-06-04T14:31:26;1.63;;;1.15;;
54849;SDS011;47660;51.334;12.396;2023-06-04T14:33:52;1.25;;;0.88;;
54849;SDS011;47660;51.334;12.396;2023-06-04T14:36:20;1.10;;;0.90;;
54849;SDS011;47660;51.334;12.396;2023-06-04T14:38:46;1.63;;;0.82;;
54849;SDS011;47660;51.334;12.396;2023-06-04T14:41:15;1.42;;;0.88;;
54849;SDS011;47660;51.334;12.396;2023-06-04T14:43:41;3.28;;;1.35;;
54849;SDS011;47660;51.334;12.396;2023-06-04T14:46:07;1.42;;;0.82;;
54849;SDS011;47660;51.334;12.396;2023-06-04T14:48:35;3.13;;;1.40;;
54849;SDS011;47660;51.334;12.396;2023-06-04T14:51:01;2.75;;;1.10;;
54849;SDS011;47660;51.334;12.396;2023-06-04T14:53:29;1.73;;;0.80;;
54849;SDS011;47660;51.334;12.396;2023-06-04T14:55:55;2.45;;;1.58;;